YMAV/AVV METAR and TAF weather

Enter ICAO airport designator
Station Type Date Time Source
YMAV METAR 2020/03/15 22:30 UTC NOAA

YMAV 152230Z AUTO 12006KT 9999 // NCD 16/12 Q1027 RF00.0/000.0


Station Type Date Time Source
YMAV Decoded METAR 2020/03/15 22:30 UTC NOAA

Avalon, Avalon Airport, Australia (YMAV) 38-02S 144-29E
Mar 15, 2020 - 06:30 PM EDT / 2020.03.15 2230 UTC
Wind: from the ESE (120 degrees) at 7 MPH (6 KT):0
Visibility: greater than 7 mile(s):0
Temperature: 60 F (16 C)
Dew Point: 53 F (12 C)
Relative Humidity: 77%
Pressure (altimeter): 30.33 in. Hg (1027 hPa)
ob: YMAV 152230Z AUTO 12006KT 9999 // NCD 16/12 Q1027 RF00.0/000.0
cycle: 22

Station Type Date Time Source
YMAV TAF 2020/03/31 06:03 UTC NOAA

TAF TAF YMAV 310432Z 3106/0106 10010KT 9999 SCT050
FM311100 15012KT CAVOK
FM311600 VRB05KT CAVOK

Example: see airport list